createdAt,value
2022-12-23T00:01:26.158Z,48.03
2022-12-23T00:03:57.657Z,48.40
2022-12-23T00:06:25.779Z,48.53
2022-12-23T00:08:58.167Z,49.03
2022-12-23T00:11:28.596Z,49.77
2022-12-23T00:14:20.673Z,48.87
2022-12-23T00:16:51.659Z,50.10
2022-12-23T00:19:20.058Z,49.67
2022-12-23T00:21:48.587Z,48.73
2022-12-23T00:24:16.617Z,48.90
2022-12-23T00:26:44.587Z,46.83
2022-12-23T00:29:13.047Z,48.57
2022-12-23T00:31:41.066Z,45.07
2022-12-23T00:34:10.771Z,44.43
2022-12-23T00:36:40.711Z,44.67
2022-12-23T00:39:30.224Z,43.07
2022-12-23T00:42:15.631Z,41.97
2022-12-23T00:44:43.614Z,39.23
2022-12-23T00:47:32.003Z,39.13
2022-12-23T00:50:00.337Z,37.57
2022-12-23T00:52:28.301Z,35.33
2022-12-23T00:54:56.324Z,34.10
2022-12-23T00:57:24.319Z,36.70
2022-12-23T00:59:52.751Z,38.40
2022-12-23T01:02:38.275Z,37.80
2022-12-23T01:05:36.171Z,36.77
2022-12-23T01:08:05.182Z,34.93
2022-12-23T01:10:33.327Z,34.97
2022-12-23T01:13:01.348Z,33.83
2022-12-23T01:15:29.421Z,32.43
2022-12-23T01:17:57.404Z,30.30
2022-12-23T01:20:26.981Z,28.60
2022-12-23T01:22:54.931Z,26.10
2022-12-23T01:25:22.900Z,24.20
2022-12-23T01:27:53.800Z,23.00
2022-12-23T01:30:22.073Z,20.37
2022-12-23T01:32:50.082Z,18.63
2022-12-23T01:35:18.153Z,17.13
2022-12-23T01:37:47.466Z,16.17
2022-12-23T01:40:15.428Z,14.50
2022-12-23T01:42:45.225Z,14.80
2022-12-23T01:45:19.812Z,14.60
2022-12-23T01:47:51.349Z,14.30
2022-12-23T01:50:23.764Z,14.27
2022-12-23T01:53:04.610Z,14.00
2022-12-23T01:55:39.665Z,13.67
2022-12-23T01:58:12.013Z,13.43
2022-12-23T02:00:59.069Z,13.77
2022-12-23T02:03:45.487Z,15.20
2022-12-23T02:06:35.850Z,14.80
2022-12-23T02:09:19.479Z,15.67
2022-12-23T02:12:25.861Z,15.40
2022-12-23T02:15:31.837Z,16.60
2022-12-23T02:18:12.848Z,17.23
2022-12-23T02:20:59.224Z,16.53
2022-12-23T02:24:02.819Z,16.37
2022-12-23T02:27:02.110Z,16.73
2022-12-23T02:30:00.607Z,17.00
2022-12-23T02:32:38.249Z,16.80
2022-12-23T02:35:13.471Z,17.20
2022-12-23T02:37:48.425Z,16.80
2022-12-23T02:40:27.190Z,15.70
2022-12-23T02:43:01.635Z,15.67
2022-12-23T02:45:37.372Z,15.03
2022-12-23T02:48:11.129Z,15.43
2022-12-23T02:50:42.015Z,15.13
2022-12-23T02:53:15.360Z,15.53
2022-12-23T02:55:46.203Z,17.17
2022-12-23T02:58:17.826Z,16.30
2022-12-23T03:00:47.787Z,16.53
2022-12-23T03:03:21.148Z,17.53
2022-12-23T03:05:50.894Z,17.33
2022-12-23T03:08:24.067Z,16.67
2022-12-23T03:11:04.793Z,15.80
2022-12-23T03:13:44.169Z,16.63
2022-12-23T03:16:21.873Z,15.33
2022-12-23T03:19:07.292Z,15.00
2022-12-23T03:21:40.830Z,13.17
2022-12-23T03:24:21.964Z,14.53
2022-12-23T03:26:55.314Z,15.20
2022-12-23T03:29:28.102Z,15.20
2022-12-23T03:31:59.374Z,14.43
2022-12-23T03:34:31.652Z,14.73
2022-12-23T03:37:05.686Z,15.13
2022-12-23T03:39:37.238Z,14.23
2022-12-23T03:42:09.899Z,15.07
2022-12-23T03:44:57.161Z,14.50
2022-12-23T03:47:32.755Z,14.27
2022-12-23T03:50:07.104Z,15.23
2022-12-23T03:52:38.588Z,14.80
2022-12-23T03:55:12.124Z,15.03
2022-12-23T03:57:44.931Z,17.00
2022-12-23T04:00:13.741Z,17.07
2022-12-23T04:02:51.532Z,16.30
2022-12-23T04:05:26.388Z,15.80
2022-12-23T04:07:59.619Z,16.13
2022-12-23T04:10:28.589Z,15.87
2022-12-23T04:12:56.629Z,16.03
2022-12-23T04:15:26.608Z,15.10
2022-12-23T04:17:57.787Z,13.53
2022-12-23T04:20:27.209Z,13.70
2022-12-23T04:22:55.244Z,13.03
2022-12-23T04:25:23.282Z,12.20
2022-12-23T04:27:51.256Z,12.53
2022-12-23T04:30:19.482Z,13.13
2022-12-23T04:32:47.579Z,12.33
2022-12-23T04:35:15.575Z,12.40
2022-12-23T04:37:44.928Z,12.53
2022-12-23T04:40:13.428Z,14.73
2022-12-23T04:42:41.521Z,13.83
2022-12-23T04:45:10.448Z,14.77
2022-12-23T04:47:38.483Z,14.80
2022-12-23T04:50:07.614Z,14.57
2022-12-23T04:52:35.599Z,16.13
2022-12-23T04:55:05.612Z,15.57
2022-12-23T04:57:33.612Z,16.23
2022-12-23T05:00:01.605Z,16.93
2022-12-23T05:02:29.726Z,17.03
2022-12-23T05:04:57.738Z,17.30
2022-12-23T05:07:25.978Z,17.00
2022-12-23T05:09:53.950Z,19.87
2022-12-23T05:12:23.262Z,19.63
2022-12-23T05:14:51.311Z,20.67
2022-12-23T05:17:19.286Z,22.17
2022-12-23T05:19:49.296Z,23.90
2022-12-23T05:22:17.269Z,21.53
2022-12-23T05:24:45.259Z,22.53
2022-12-23T05:27:13.272Z,21.97
2022-12-23T05:29:42.630Z,23.17
2022-12-23T05:32:10.809Z,23.63
2022-12-23T05:34:38.821Z,21.73
2022-12-23T05:37:07.346Z,21.37
2022-12-23T05:39:35.330Z,20.63
2022-12-23T05:42:03.310Z,19.17
2022-12-23T05:44:31.301Z,19.90
2022-12-23T05:47:00.641Z,18.83
2022-12-23T05:49:28.629Z,19.53
2022-12-23T05:51:56.621Z,17.60
2022-12-23T05:54:24.581Z,18.63
2022-12-23T05:56:53.593Z,19.10
2022-12-23T05:59:21.617Z,16.73
2022-12-23T06:01:52.553Z,18.60
2022-12-23T06:04:22.023Z,20.47
2022-12-23T06:06:50.019Z,23.70
2022-12-23T06:09:18.002Z,23.93
2022-12-23T06:11:45.989Z,27.87
2022-12-23T06:14:14.183Z,27.20
2022-12-23T06:16:42.280Z,30.40
2022-12-23T06:19:10.774Z,26.67
2022-12-23T06:21:40.120Z,21.83
2022-12-23T06:24:08.798Z,22.93
2022-12-23T06:26:36.955Z,24.53
2022-12-23T06:29:05.197Z,21.70
2022-12-23T06:31:33.192Z,19.97
2022-12-23T06:34:01.213Z,18.90
2022-12-23T06:36:29.293Z,19.57
2022-12-23T06:38:58.655Z,17.50
2022-12-23T06:41:26.789Z,16.87
2022-12-23T06:43:54.867Z,16.93
2022-12-23T06:46:22.999Z,16.20
2022-12-23T06:48:53.571Z,15.20
2022-12-23T06:51:21.669Z,16.70
2022-12-23T06:53:49.695Z,15.60
2022-12-23T06:56:19.608Z,16.27
2022-12-23T06:58:47.937Z,15.40
2022-12-23T07:01:16.236Z,16.07
2022-12-23T07:03:44.323Z,15.07
2022-12-23T07:06:17.287Z,13.93
2022-12-23T07:08:45.327Z,13.63
2022-12-23T07:11:13.735Z,13.97
2022-12-23T07:13:43.139Z,16.70
2022-12-23T07:16:13.139Z,19.47
2022-12-23T07:18:41.291Z,20.30
2022-12-23T07:21:19.701Z,20.50
2022-12-23T07:23:52.798Z,21.83
2022-12-23T07:26:20.786Z,20.77
2022-12-23T07:28:50.163Z,21.37
2022-12-23T07:31:18.371Z,21.07
2022-12-23T07:33:46.422Z,20.63
2022-12-23T07:36:14.379Z,21.13
2022-12-23T07:38:42.389Z,20.23
2022-12-23T07:41:12.545Z,20.33
2022-12-23T07:43:40.555Z,20.43
2022-12-23T07:46:10.970Z,22.30
2022-12-23T07:48:40.390Z,22.20
2022-12-23T07:51:11.384Z,20.43
2022-12-23T07:53:41.413Z,20.30
2022-12-23T07:56:12.859Z,23.40
2022-12-23T07:58:40.819Z,22.33
2022-12-23T08:01:16.170Z,21.47
2022-12-23T08:03:44.276Z,21.43
2022-12-23T08:06:14.197Z,22.00
2022-12-23T08:08:43.157Z,22.00
2022-12-23T08:11:13.092Z,22.90
2022-12-23T08:13:43.130Z,22.73
2022-12-23T08:16:13.233Z,23.30
2022-12-23T08:18:42.433Z,23.60
2022-12-23T08:21:14.635Z,23.67
2022-12-23T08:23:43.540Z,24.50
2022-12-23T08:26:13.083Z,23.53
2022-12-23T08:28:42.418Z,25.83
2022-12-23T08:31:16.093Z,24.27
2022-12-23T08:33:46.045Z,22.13
2022-12-23T08:36:22.438Z,22.47
2022-12-23T08:38:52.451Z,22.03
2022-12-23T08:41:22.824Z,26.00
2022-12-23T08:43:51.709Z,25.50
2022-12-23T08:46:21.852Z,28.17
2022-12-23T08:48:53.157Z,31.70
2022-12-23T08:51:22.566Z,30.60
2022-12-23T08:53:56.181Z,30.13
2022-12-23T08:56:30.350Z,28.07
2022-12-23T08:58:58.446Z,28.00
2022-12-23T09:01:29.777Z,27.30
2022-12-23T09:03:57.967Z,27.97
2022-12-23T09:06:29.876Z,26.33
2022-12-23T09:08:59.132Z,27.43
2022-12-23T09:11:28.883Z,31.30
2022-12-23T09:13:57.945Z,32.57
2022-12-23T09:16:27.510Z,32.17
2022-12-23T09:18:55.616Z,32.33
2022-12-23T09:21:25.537Z,32.83
2022-12-23T09:23:53.688Z,32.37
2022-12-23T09:26:25.950Z,30.73
2022-12-23T09:28:54.766Z,31.13
2022-12-23T09:31:24.740Z,31.57
2022-12-23T09:33:55.395Z,34.00
2022-12-23T09:36:23.609Z,34.30
2022-12-23T09:38:55.784Z,34.37
2022-12-23T09:41:42.781Z,35.73
2022-12-23T09:44:38.785Z,34.00
2022-12-23T09:47:12.427Z,33.83
2022-12-23T09:49:48.366Z,32.90
2022-12-23T09:52:23.317Z,26.37
2022-12-23T09:54:54.730Z,22.37
2022-12-23T09:57:27.714Z,18.87
2022-12-23T10:00:07.970Z,18.73
2022-12-23T10:02:57.771Z,19.00
2022-12-23T10:05:36.867Z,17.93
2022-12-23T10:08:11.989Z,19.07
2022-12-23T10:10:43.879Z,21.27
2022-12-23T10:13:20.600Z,22.77
2022-12-23T10:15:53.140Z,23.87
2022-12-23T10:18:27.699Z,23.97
2022-12-23T10:21:01.552Z,23.17
2022-12-23T10:23:34.722Z,22.40
2022-12-23T10:26:09.809Z,20.97
2022-12-23T10:28:37.833Z,23.67
2022-12-23T10:34:09.698Z,26.53
2022-12-23T10:36:47.064Z,25.83
2022-12-23T10:39:25.751Z,26.33
2022-12-23T10:42:05.315Z,26.50
2022-12-23T10:44:55.868Z,26.40
2022-12-23T10:47:41.847Z,24.93
2022-12-23T10:50:24.288Z,25.80
2022-12-23T10:52:57.644Z,23.70
2022-12-23T10:55:33.109Z,24.03
2022-12-23T10:58:07.370Z,23.00
2022-12-23T11:00:38.895Z,23.30
2022-12-23T11:03:16.280Z,24.13
2022-12-23T11:05:45.605Z,27.20
2022-12-23T11:08:15.087Z,28.10
2022-12-23T11:10:43.411Z,29.50
2022-12-23T11:13:11.419Z,30.10
2022-12-23T11:15:41.532Z,28.13
2022-12-23T11:18:20.807Z,30.30
2022-12-23T11:21:05.265Z,30.40
2022-12-23T11:23:37.014Z,31.33
2022-12-23T11:26:07.304Z,32.27
2022-12-23T11:28:39.050Z,31.33
2022-12-23T11:31:11.597Z,30.63
2022-12-23T11:33:41.584Z,30.70
2022-12-23T11:36:18.686Z,30.20
2022-12-23T11:38:53.867Z,29.80
2022-12-23T11:41:23.559Z,28.87
2022-12-23T11:43:58.878Z,29.40
2022-12-23T11:46:28.560Z,28.07
2022-12-23T11:49:09.459Z,27.90
2022-12-23T11:51:37.427Z,27.50
2022-12-23T11:54:06.995Z,26.70
2022-12-23T11:56:39.889Z,28.63
2022-12-23T11:59:10.204Z,24.90
2022-12-23T12:01:39.435Z,26.67
2022-12-23T12:04:10.282Z,26.03
2022-12-23T12:06:48.393Z,26.80
2022-12-23T12:09:23.558Z,25.90
2022-12-23T12:11:54.366Z,25.47
2022-12-23T12:14:29.689Z,24.37
2022-12-23T12:17:03.078Z,23.83
2022-12-23T12:19:36.711Z,23.03
2022-12-23T12:22:11.311Z,22.17
2022-12-23T12:24:46.007Z,21.13
2022-12-23T12:27:14.244Z,20.63
2022-12-23T12:29:48.085Z,20.47
2022-12-23T12:32:23.700Z,19.10
2022-12-23T12:34:57.033Z,19.97
2022-12-23T12:37:34.266Z,19.80
2022-12-23T12:40:14.714Z,18.07
2022-12-23T12:42:45.164Z,22.33
2022-12-23T12:45:19.409Z,21.70
2022-12-23T12:48:00.129Z,23.90
2022-12-23T12:50:40.892Z,22.70
2022-12-23T12:53:16.668Z,23.10
2022-12-23T12:55:50.006Z,20.67
2022-12-23T12:58:21.656Z,20.70
2022-12-23T13:01:00.146Z,20.90
2022-12-23T13:03:48.198Z,22.47
2022-12-23T13:06:24.293Z,24.07
2022-12-23T13:09:07.590Z,25.90
2022-12-23T13:11:45.160Z,25.30
2022-12-23T13:14:24.752Z,25.60
2022-12-23T13:17:03.597Z,26.23
2022-12-23T13:19:38.934Z,25.37
2022-12-23T13:22:11.355Z,24.97
2022-12-23T13:24:52.990Z,24.60
2022-12-23T13:27:28.806Z,23.80
2022-12-23T13:30:13.096Z,24.20
2022-12-23T13:33:13.062Z,23.07
2022-12-23T13:36:02.944Z,23.70
2022-12-23T13:38:46.983Z,23.40
2022-12-23T13:41:23.750Z,24.70
2022-12-23T13:43:57.502Z,24.37
2022-12-23T13:46:34.689Z,25.57
2022-12-23T13:49:08.925Z,24.50
2022-12-23T13:51:44.611Z,24.10
2022-12-23T13:54:21.674Z,24.90
2022-12-23T13:56:55.039Z,23.93
2022-12-23T13:59:24.559Z,21.97
2022-12-23T14:01:53.378Z,21.63
2022-12-23T14:04:32.414Z,21.83
2022-12-23T14:07:02.364Z,22.77
2022-12-23T14:09:33.905Z,22.17
2022-12-23T14:12:13.973Z,22.10
2022-12-23T14:14:51.446Z,20.93
2022-12-23T14:17:29.920Z,19.53
2022-12-23T14:20:07.999Z,19.13
2022-12-23T14:22:52.934Z,18.83
2022-12-23T14:25:42.065Z,18.50
2022-12-23T14:28:21.526Z,18.23
2022-12-23T14:30:52.361Z,18.87
2022-12-23T14:33:25.103Z,19.87
2022-12-23T14:36:22.628Z,19.97
2022-12-23T14:39:23.991Z,18.97
2022-12-23T14:41:53.909Z,20.23
2022-12-23T14:44:23.279Z,24.97
2022-12-23T14:46:57.590Z,30.13
2022-12-23T14:49:44.685Z,29.43
2022-12-23T14:52:52.124Z,28.33
2022-12-23T14:55:42.703Z,25.37
2022-12-23T14:58:35.605Z,24.17
2022-12-23T15:01:08.419Z,22.67
2022-12-23T15:03:45.244Z,22.70
2022-12-23T15:06:18.762Z,21.67
2022-12-23T15:08:48.729Z,22.70
2022-12-23T15:11:23.810Z,21.70
2022-12-23T15:13:54.765Z,22.97
2022-12-23T15:16:34.151Z,21.83
2022-12-23T15:19:13.996Z,22.97
2022-12-23T15:21:43.976Z,23.07
2022-12-23T15:24:19.774Z,25.70
2022-12-23T15:27:17.537Z,26.27
2022-12-23T15:29:44.486Z,25.20
2022-12-23T15:32:12.778Z,25.37
2022-12-23T15:34:42.951Z,27.60
2022-12-23T15:37:12.519Z,26.30
2022-12-23T15:39:45.150Z,27.23
2022-12-23T15:42:23.784Z,25.20
2022-12-23T15:44:52.131Z,26.07
2022-12-23T15:47:30.033Z,25.23
2022-12-23T15:50:00.813Z,26.33
2022-12-23T15:52:30.559Z,25.80
2022-12-23T15:55:03.705Z,25.77
2022-12-23T15:57:32.243Z,25.83
2022-12-23T16:00:00.941Z,26.10
2022-12-23T16:02:59.607Z,24.30
2022-12-23T16:05:29.867Z,23.20
2022-12-23T16:08:26.769Z,22.57
2022-12-23T16:11:04.585Z,22.37
2022-12-23T16:13:33.322Z,23.13
2022-12-23T16:16:20.899Z,25.30
2022-12-23T16:18:48.970Z,23.53
2022-12-23T16:21:18.328Z,25.17
2022-12-23T16:23:51.689Z,24.87
2022-12-23T16:26:20.574Z,25.17
2022-12-23T16:28:55.029Z,25.23
2022-12-23T16:31:24.624Z,24.23
2022-12-23T16:33:55.241Z,24.67
2022-12-23T16:36:35.909Z,24.33
2022-12-23T16:39:20.009Z,25.07
2022-12-23T16:41:48.321Z,24.67
2022-12-23T16:44:16.909Z,23.03
2022-12-23T16:46:48.327Z,24.50
2022-12-23T16:49:17.829Z,23.47
2022-12-23T16:51:47.808Z,25.20
2022-12-23T16:54:17.940Z,23.10
2022-12-23T16:56:49.825Z,23.50
2022-12-23T16:59:18.123Z,23.80
2022-12-23T17:01:49.698Z,23.30
2022-12-23T17:04:17.771Z,22.60
2022-12-23T17:06:47.456Z,23.10
2022-12-23T17:09:15.529Z,22.80
2022-12-23T17:11:45.890Z,22.17
2022-12-23T17:14:16.979Z,22.33
2022-12-23T17:16:45.578Z,26.80
2022-12-23T17:19:16.275Z,23.43
2022-12-23T17:21:48.347Z,25.37
2022-12-23T17:24:22.490Z,27.73
2022-12-23T17:26:50.930Z,33.30
2022-12-23T17:29:18.982Z,30.13
2022-12-23T17:31:49.501Z,30.80
2022-12-23T17:34:18.879Z,30.57
2022-12-23T17:36:51.226Z,31.97
2022-12-23T17:39:19.903Z,34.03
2022-12-23T17:41:48.379Z,36.03
2022-12-23T17:44:17.854Z,34.07
2022-12-23T17:46:46.597Z,36.23
2022-12-23T17:49:14.742Z,35.60
2022-12-23T17:51:43.397Z,34.50
2022-12-23T17:54:22.307Z,33.30
2022-12-23T17:56:50.867Z,33.43
2022-12-23T17:59:18.935Z,33.17
2022-12-23T18:01:47.037Z,33.73
2022-12-23T18:04:15.150Z,34.60
2022-12-23T18:06:43.145Z,35.53
2022-12-23T18:09:14.943Z,36.60
2022-12-23T18:11:45.672Z,37.50
2022-12-23T18:14:17.432Z,39.00
2022-12-23T18:16:46.276Z,39.20
2022-12-23T18:19:17.467Z,40.03
2022-12-23T18:21:45.716Z,41.67
2022-12-23T18:24:15.113Z,41.07
2022-12-23T18:26:43.117Z,41.17
2022-12-23T18:29:11.164Z,43.57
2022-12-23T18:31:50.643Z,41.83
2022-12-23T18:34:20.768Z,44.47
2022-12-23T18:36:53.634Z,45.03
2022-12-23T18:39:23.046Z,44.87
2022-12-23T18:41:51.321Z,46.03
2022-12-23T18:44:21.187Z,45.10
2022-12-23T18:46:50.312Z,45.67
2022-12-23T18:49:18.656Z,44.80
2022-12-23T18:51:46.935Z,46.40
2022-12-23T18:54:16.647Z,46.80
2022-12-23T18:56:46.742Z,46.43
2022-12-23T18:59:22.854Z,45.10
2022-12-23T19:01:56.113Z,46.53
2022-12-23T19:04:24.343Z,47.03
2022-12-23T19:06:52.426Z,45.03
2022-12-23T19:09:21.968Z,45.30
2022-12-23T19:11:52.959Z,46.17
2022-12-23T19:14:21.166Z,44.90
2022-12-23T19:16:51.996Z,45.03
2022-12-23T19:19:21.076Z,46.53
2022-12-23T19:21:49.153Z,47.07
2022-12-23T19:24:17.130Z,48.87
2022-12-23T19:26:45.131Z,49.20
2022-12-23T19:29:15.366Z,48.17
2022-12-23T19:31:43.343Z,48.93
2022-12-23T19:34:15.359Z,47.87
2022-12-23T19:36:43.689Z,47.90
2022-12-23T19:39:15.996Z,50.73
2022-12-23T19:41:44.473Z,50.20
2022-12-23T19:44:14.350Z,50.20
2022-12-23T19:46:42.779Z,50.37
2022-12-23T19:49:17.460Z,48.90
2022-12-23T19:51:48.006Z,50.13
2022-12-23T19:54:16.122Z,50.07
2022-12-23T19:56:44.315Z,67.17
2022-12-23T19:59:12.392Z,70.60
2022-12-23T20:01:42.058Z,64.50
2022-12-23T20:04:14.043Z,62.77
2022-12-23T20:06:45.352Z,54.57
2022-12-23T20:09:17.451Z,55.73
2022-12-23T20:11:51.457Z,54.73
2022-12-23T20:14:21.567Z,58.70
2022-12-23T20:16:51.134Z,59.07
2022-12-23T20:19:19.499Z,60.80
2022-12-23T20:21:47.607Z,63.00
2022-12-23T20:24:16.928Z,67.70
2022-12-23T20:26:48.110Z,67.83
2022-12-23T20:29:16.195Z,69.73
2022-12-23T20:31:44.332Z,68.03
2022-12-23T20:34:16.628Z,63.03
2022-12-23T20:36:44.806Z,61.73
2022-12-23T20:39:14.100Z,60.07
2022-12-23T20:41:42.343Z,61.20
2022-12-23T20:44:33.866Z,58.80
2022-12-23T20:46:58.406Z,59.07
2022-12-23T20:49:27.820Z,59.03
2022-12-23T20:51:55.828Z,53.67
2022-12-23T20:54:29.746Z,56.90
2022-12-23T20:57:00.474Z,57.53
2022-12-23T20:59:28.649Z,59.00
2022-12-23T21:01:58.745Z,58.63
2022-12-23T21:04:28.356Z,58.63
2022-12-23T21:06:56.345Z,57.27
2022-12-23T21:09:26.660Z,57.17
2022-12-23T21:11:54.685Z,57.03
2022-12-23T21:14:22.764Z,56.80
2022-12-23T21:16:50.866Z,55.00
2022-12-23T21:19:21.517Z,54.20
2022-12-23T21:21:52.879Z,54.07
2022-12-23T21:24:21.495Z,53.67
2022-12-23T21:26:56.550Z,54.17
2022-12-23T21:29:25.029Z,51.60
2022-12-23T21:31:53.098Z,50.07
2022-12-23T21:34:21.184Z,52.43
2022-12-23T21:36:51.932Z,53.80
2022-12-23T21:39:20.170Z,56.30
2022-12-23T21:41:50.921Z,54.97
2022-12-23T21:44:18.948Z,53.97
2022-12-23T21:46:47.034Z,53.03
2022-12-23T21:49:15.147Z,51.90
2022-12-23T21:51:43.134Z,54.37
2022-12-23T21:54:13.218Z,56.43
2022-12-23T21:56:42.517Z,51.83
2022-12-23T21:59:14.263Z,51.00
2022-12-23T22:01:42.838Z,52.67
2022-12-23T22:04:11.055Z,52.43
2022-12-23T22:06:41.227Z,48.40
2022-12-23T22:09:09.747Z,49.17
2022-12-23T22:11:39.910Z,47.70
2022-12-23T22:14:11.568Z,46.70
2022-12-23T22:16:39.576Z,49.20
2022-12-23T22:19:09.269Z,46.03
2022-12-23T22:21:39.439Z,47.07
2022-12-23T22:24:08.179Z,47.23
2022-12-23T22:26:37.998Z,47.33
2022-12-23T22:29:07.398Z,47.10
2022-12-23T22:31:39.679Z,46.50
2022-12-23T22:34:09.647Z,44.00
2022-12-23T22:36:37.715Z,43.30
2022-12-23T22:39:07.578Z,42.27
2022-12-23T22:41:36.185Z,39.03
2022-12-23T22:44:05.858Z,40.13
2022-12-23T22:46:34.050Z,41.33
2022-12-23T22:49:02.111Z,39.70
2022-12-23T22:51:34.172Z,39.97
2022-12-23T22:54:03.591Z,39.70
2022-12-23T22:56:31.595Z,41.87
2022-12-23T22:58:59.651Z,42.53
2022-12-23T23:01:31.884Z,43.73
2022-12-23T23:04:01.852Z,42.10
2022-12-23T23:06:32.747Z,43.90
2022-12-23T23:09:01.368Z,44.67
2022-12-23T23:11:30.467Z,47.93
2022-12-23T23:13:58.940Z,49.80
2022-12-23T23:16:28.830Z,54.17
2022-12-23T23:18:58.626Z,59.13
2022-12-23T23:21:27.209Z,58.63
2022-12-23T23:23:55.451Z,59.00
2022-12-23T23:26:27.432Z,57.40
2022-12-23T23:28:55.987Z,55.87
2022-12-23T23:31:41.870Z,54.67
2022-12-23T23:34:12.203Z,57.83
2022-12-23T23:36:40.472Z,55.53
2022-12-23T23:39:08.878Z,49.73
2022-12-23T23:41:36.922Z,48.07
2022-12-23T23:44:04.974Z,48.57
2022-12-23T23:46:35.246Z,43.43
2022-12-23T23:49:03.478Z,41.63
2022-12-23T23:51:33.301Z,43.23
2022-12-23T23:54:01.275Z,43.00
2022-12-23T23:56:35.757Z,43.60
2022-12-23T23:59:06.028Z,44.77
